Time;durP1;ratioP1;P1;durP2;ratioP2;P2;SDS_P1;SDS_P2;PMS_P1;PMS_P2;Temp;Humidity;BMP_temperature;BMP_pressure;BME280_temperature;BME280_humidity;BME280_pressure;Samples;Min_cycle;Max_cycle;Signal;HPM_P1;HPM_P2
2023/10/06 00:01:46;;;;;;;;;2.00;1.75;;;;;-143.90;88.67;75544.38;4955228;28;107432;-74
2023/10/06 00:04:18;;;;;;;;;2.50;2.50;;;;;-143.90;88.71;75546.44;4875617;28;103186;-74
2023/10/06 00:06:45;;;;;;;;;5.00;5.00;;;;;-143.90;90.05;75554.72;4889628;28;102275;-73
2023/10/06 00:09:28;;;;;;;;;4.00;4.00;;;;;-143.90;91.26;75577.44;4832882;28;103276;-74
2023/10/06 00:11:55;;;;;;;;;6.00;5.00;;;;;-143.90;92.73;75581.59;4936013;28;104899;-73
2023/10/06 00:14:48;;;;;;;;;6.50;5.00;;;;;-143.90;93.83;75589.84;4817985;28;102617;-73
2023/10/06 00:17:17;;;;;;;;;5.00;4.50;;;;;-143.90;93.66;75600.19;4819387;28;101956;-73
2023/10/06 00:19:51;;;;;;;;;6.00;4.75;;;;;-143.90;94.70;75602.25;4903328;28;104852;-72
2023/10/06 00:22:19;;;;;;;;;6.25;5.50;;;;;-143.90;95.52;75600.19;4967218;28;103659;-73
2023/10/06 00:24:47;;;;;;;;;8.00;7.00;;;;;-143.90;95.41;75616.72;4981424;28;101815;-74
2023/10/06 00:27:16;;;;;;;;;4.00;4.00;;;;;-143.90;95.39;75602.25;4987009;27;102253;-74
2023/10/06 00:29:47;;;;;;;;;5.00;4.75;;;;;-143.90;95.74;75610.53;4954791;28;101823;-74
2023/10/06 00:32:25;;;;;;;;;4.75;3.00;;;;;-143.90;96.06;75610.53;4933699;28;107730;-73
2023/10/06 00:35:08;;;;;;;;;4.25;4.25;;;;;-143.90;96.09;75610.53;4934908;28;101959;-73
2023/10/06 00:37:39;;;;;;;;;3.00;2.00;;;;;-143.90;95.79;75610.53;4946785;28;101995;-73
2023/10/06 00:40:19;;;;;;;;;6.00;4.00;;;;;-143.90;96.33;75622.94;4978506;27;101884;-73
2023/10/06 00:42:51;;;;;;;;;3.75;2.25;;;;;-143.90;96.73;75627.06;4976262;28;109027;-74
2023/10/06 00:45:26;;;;;;;;;4.50;4.50;;;;;-143.90;97.42;75635.34;4963448;28;101779;-74
2023/10/06 00:47:53;;;;;;;;;5.00;4.00;;;;;-143.90;97.29;75635.34;4971212;28;101674;-74
2023/10/06 00:50:23;;;;;;;;;3.25;3.25;;;;;-143.90;97.69;75645.69;4966355;28;102730;-74
2023/10/06 00:52:51;;;;;;;;;7.50;5.25;;;;;-143.90;98.88;75676.69;4930325;28;103054;-73
2023/10/06 00:55:21;;;;;;;;;6.75;6.00;;;;;-143.90;99.33;75668.44;4902597;28;101565;-73
2023/10/06 00:57:53;;;;;;;;;5.50;4.00;;;;;-143.90;98.68;75668.44;4963055;28;101571;-73
2023/10/06 01:00:20;;;;;;;;;5.00;5.00;;;;;-143.90;98.66;75668.44;4962937;28;102280;-71
2023/10/06 01:02:51;;;;;;;;;5.00;4.00;;;;;-143.90;99.00;75676.69;4946667;28;102802;-73
2023/10/06 01:05:21;;;;;;;;;3.25;3.25;;;;;-143.90;99.45;75680.84;4971023;28;101907;-73
2023/10/06 01:07:49;;;;;;;;;4.25;3.25;;;;;-143.90;99.21;75689.09;4955138;28;101790;-72
2023/10/06 01:10:18;;;;;;;;;3.50;3.00;;;;;-143.90;99.12;75682.91;4951482;28;101992;-73
2023/10/06 01:12:51;;;;;;;;;3.25;3.00;;;;;-143.90;99.30;75689.09;4898978;28;104712;-73
2023/10/06 01:15:20;;;;;;;;;1.50;1.50;;;;;-143.90;99.44;75691.16;4949292;28;101582;-73
2023/10/06 01:17:48;;;;;;;;;2.75;2.00;;;;;-143.90;98.75;75680.84;4956816;28;101702;-74
2023/10/06 01:20:40;;;;;;;;;2.00;1.75;;;;;-143.90;99.24;75699.44;4909081;28;104122;-73
2023/10/06 01:23:17;;;;;;;;;3.75;3.00;;;;;-143.90;99.87;75701.50;4976710;28;104856;-73
2023/10/06 01:25:44;;;;;;;;;3.00;2.75;;;;;-143.90;99.89;75709.78;4963504;28;101881;-74
2023/10/06 01:28:18;;;;;;;;;4.50;4.50;;;;;-143.90;100.00;75709.78;4943396;28;101893;-74
2023/10/06 01:30:45;;;;;;;;;4.50;3.25;;;;;-143.90;100.00;75709.78;4956806;28;102028;-73
2023/10/06 01:33:11;;;;;;;;;3.00;2.00;;;;;-143.90;100.00;75724.25;4925587;28;103729;-73
2023/10/06 01:35:42;;;;;;;;;3.75;3.00;;;;;-143.90;100.00;75718.06;4921744;28;101945;-73
2023/10/06 01:38:27;;;;;;;;;5.00;4.00;;;;;-143.90;100.00;75730.47;4909252;28;102064;-73
2023/10/06 01:41:02;;;;;;;;;3.75;3.75;;;;;-143.90;100.00;75726.31;4969743;28;102009;-73
2023/10/06 01:43:29;;;;;;;;;4.75;3.00;;;;;-143.90;100.00;75736.66;4947316;28;103573;-73
2023/10/06 01:45:59;;;;;;;;;5.75;5.00;;;;;-143.90;100.00;75757.34;4973168;28;101547;-71
2023/10/06 01:48:30;;;;;;;;;5.00;4.00;;;;;-143.90;100.00;75755.28;4947218;27;101741;-73
2023/10/06 01:50:58;;;;;;;;;4.25;3.25;;;;;-143.90;100.00;75753.19;4955878;28;101842;-73
2023/10/06 01:53:32;;;;;;;;;4.00;4.00;;;;;-143.90;100.00;75767.69;4935116;28;102555;-73
2023/10/06 01:56:06;;;;;;;;;3.00;3.00;;;;;-143.90;100.00;75767.69;4969712;28;101745;-75
2023/10/06 01:58:35;;;;;;;;;4.75;3.75;;;;;-143.90;100.00;75761.47;4949467;28;101589;-73
2023/10/06 02:01:05;;;;;;;;;2.00;2.00;;;;;-143.90;100.00;75771.81;4972688;28;102958;-73
2023/10/06 02:03:38;;;;;;;;;2.50;2.50;;;;;-143.90;100.00;75771.81;4979356;28;104659;-73
2023/10/06 02:06:05;;;;;;;;;1.50;1.50;;;;;-143.90;100.00;75775.94;4939783;28;101673;-75
2023/10/06 02:08:32;;;;;;;;;3.00;3.00;;;;;-143.90;100.00;75775.94;4955824;28;101852;-73
2023/10/06 02:11:01;;;;;;;;;1.00;1.00;;;;;-143.90;100.00;75782.16;4953961;28;101736;-73
2023/10/06 02:13:29;;;;;;;;;2.00;2.00;;;;;-143.90;100.00;75775.94;4976845;28;104343;-74
2023/10/06 02:15:58;;;;;;;;;3.25;1.75;;;;;-143.90;100.00;75769.75;4978822;28;101614;-73
2023/10/06 02:18:36;;;;;;;;;2.00;2.00;;;;;-143.90;100.00;75775.94;4968978;28;103290;-74
2023/10/06 02:21:23;;;;;;;;;3.25;3.00;;;;;-143.90;100.00;75767.69;4952033;28;101725;-73
2023/10/06 02:23:51;;;;;;;;;4.00;3.00;;;;;-143.90;100.00;75775.94;4922670;28;109742;-74
2023/10/06 02:26:20;;;;;;;;;4.00;2.75;;;;;-143.90;100.00;75784.22;4904086;28;101688;-73
2023/10/06 02:28:50;;;;;;;;;1.00;1.00;;;;;-143.90;100.00;75778.00;4955852;28;101732;-74
2023/10/06 02:31:23;;;;;;;;;3.00;3.00;;;;;-143.90;100.00;75782.16;4964802;28;101715;-74
2023/10/06 02:33:51;;;;;;;;;5.50;2.00;;;;;-143.90;100.00;75786.28;4940982;28;109092;-74
2023/10/06 02:36:22;;;;;;;;;1.75;1.25;;;;;-143.90;100.00;75792.50;4967569;28;101541;-74
2023/10/06 02:38:50;;;;;;;;;3.00;3.00;;;;;-143.90;100.00;75800.75;4915270;28;101801;-74
2023/10/06 02:41:25;;;;;;;;;3.00;3.00;;;;;-143.90;100.00;75804.91;4956517;28;101618;-74
2023/10/06 02:43:55;;;;;;;;;4.75;3.75;;;;;-143.90;100.00;75815.22;4916036;28;107634;-74
2023/10/06 02:46:26;;;;;;;;;3.25;3.00;;;;;-143.90;100.00;75831.78;4966729;28;102058;-73
2023/10/06 02:48:53;;;;;;;;;3.00;3.00;;;;;-143.90;100.00;75837.97;4934475;28;101470;-74
2023/10/06 02:51:32;;;;;;;;;1.25;1.25;;;;;-143.90;100.00;75833.84;4954267;27;101938;-74
2023/10/06 02:54:20;;;;;;;;;1.75;1.75;;;;;-143.90;100.00;75846.25;4922232;28;107556;-74
2023/10/06 02:56:50;;;;;;;;;1.00;1.00;;;;;-143.90;100.00;75846.25;4949484;28;101992;-74
2023/10/06 02:59:23;;;;;;;;;3.00;2.50;;;;;-143.90;100.00;75850.38;4958660;28;102110;-74
2023/10/06 03:01:54;;;;;;;;;2.75;2.50;;;;;-143.90;100.00;75862.78;4950486;28;103649;-74
2023/10/06 03:04:24;;;;;;;;;2.50;1.00;;;;;-143.90;100.00;75862.78;4926897;27;109273;-73
2023/10/06 03:06:58;;;;;;;;;1.25;1.25;;;;;-143.90;100.00;75881.41;4935609;28;101624;-74
2023/10/06 03:09:44;;;;;;;;;3.75;1.75;;;;;-143.90;100.00;75869.00;4942865;28;101698;-73
2023/10/06 03:14:44;;;;;;;;;2.50;2.00;;;;;-143.90;100.00;75887.59;4949839;28;105023;-74
2023/10/06 03:17:18;;;;;;;;;3.00;2.00;;;;;-143.90;100.00;75897.94;4946313;28;103465;-73
2023/10/06 03:19:56;;;;;;;;;2.25;2.00;;;;;-143.90;100.00;75912.41;4954674;28;101524;-73
2023/10/06 03:22:25;;;;;;;;;2.25;1.50;;;;;-143.90;100.00;75924.81;4924557;28;101650;-73
2023/10/06 03:24:58;;;;;;;;;2.00;1.00;;;;;-143.90;100.00;75937.22;4964038;28;102974;-74
2023/10/06 03:27:26;;;;;;;;;1.25;1.00;;;;;-143.90;100.00;75949.63;4941804;28;101683;-73
2023/10/06 03:32:32;;;;;;;;;1.00;0.00;;;;;-143.90;100.00;75962.03;4962271;28;101741;-74
2023/10/06 03:35:06;;;;;;;;;2.00;0.50;;;;;-143.90;100.00;75974.44;4960470;28;107918;-73
2023/10/06 03:37:45;;;;;;;;;0.00;0.00;;;;;-143.90;100.00;75976.53;4968621;28;102125;-73
2023/10/06 03:40:23;;;;;;;;;1.00;0.25;;;;;-143.90;100.00;75997.19;4964702;28;101539;-73
2023/10/06 03:42:52;;;;;;;;;0.25;0.25;;;;;-143.90;100.00;75997.19;4938449;28;102015;-74
2023/10/06 03:45:30;;;;;;;;;1.00;0.75;;;;;-143.90;100.00;75978.59;4963102;28;107137;-75
2023/10/06 03:48:13;;;;;;;;;2.00;2.00;;;;;-143.90;100.00;75982.72;4950110;28;101671;-75
2023/10/06 03:50:43;;;;;;;;;5.00;3.00;;;;;-143.90;100.00;75986.84;4954219;28;102597;-75
2023/10/06 03:53:12;;;;;;;;;4.00;3.00;;;;;-143.90;100.00;75982.72;4940841;28;101681;-74
2023/10/06 03:55:42;;;;;;;;;2.75;2.00;;;;;-143.90;100.00;75982.72;4952979;28;103536;-75
2023/10/06 03:58:11;;;;;;;;;4.00;3.00;;;;;-143.90;100.00;75984.78;4969860;28;101801;-74
2023/10/06 04:00:39;;;;;;;;;4.00;3.00;;;;;-143.90;100.00;75978.59;4934920;28;102001;-75
2023/10/06 04:03:13;;;;;;;;;2.50;2.00;;;;;-143.90;100.00;75978.59;4963576;27;102352;-75
2023/10/06 04:05:44;;;;;;;;;3.50;2.00;;;;;-143.90;100.00;75974.44;4948530;28;102852;-75
2023/10/06 04:08:14;;;;;;;;;2.00;2.00;;;;;-143.90;100.00;75978.59;4947667;28;102543;-75
2023/10/06 04:10:48;;;;;;;;;3.00;2.50;;;;;-143.90;100.00;75982.72;4968946;28;101931;-75
2023/10/06 04:13:18;;;;;;;;;3.00;3.00;;;;;-143.90;100.00;75988.94;4967123;28;102852;-74
2023/10/06 04:15:49;;;;;;;;;3.00;3.00;;;;;-143.90;100.00;75995.13;4916397;28;102829;-74
2023/10/06 04:18:22;;;;;;;;;3.00;2.25;;;;;-143.90;100.00;75999.25;4921483;28;101667;-74
2023/10/06 04:21:02;;;;;;;;;3.00;2.75;;;;;-143.90;100.00;76011.66;4788566;28;102189;-74
2023/10/06 04:23:29;;;;;;;;;2.00;2.00;;;;;-143.90;100.00;76011.66;4942106;28;101671;-73
2023/10/06 04:25:56;;;;;;;;;3.25;3.00;;;;;-143.90;100.00;76017.88;4940945;28;105597;-73
2023/10/06 04:28:27;;;;;;;;;1.50;1.50;;;;;-143.90;100.00;76019.94;4982080;28;101617;-73
2023/10/06 04:31:00;;;;;;;;;2.25;2.00;;;;;-143.90;100.00;76026.16;4940117;28;101531;-73
2023/10/06 04:33:28;;;;;;;;;3.50;2.75;;;;;-143.90;100.00;76024.06;4958203;28;102143;-74
2023/10/06 04:38:48;;;;;;;;;2.00;1.75;;;;;-143.90;100.00;76044.75;4855242;28;101675;-73
2023/10/06 04:41:14;;;;;;;;;3.75;2.00;;;;;-143.90;100.00;76044.75;4970679;28;101832;-74
2023/10/06 04:43:45;;;;;;;;;2.00;2.00;;;;;-143.90;100.00;76048.88;4973569;28;101609;-74
2023/10/06 04:46:13;;;;;;;;;2.00;2.00;;;;;-143.90;100.00;76061.31;4831981;28;102677;-74
2023/10/06 04:48:47;;;;;;;;;2.00;2.00;;;;;-143.90;100.00;76063.38;4822454;28;102667;-75
2023/10/06 04:51:23;;;;;;;;;2.50;2.50;;;;;-143.90;100.00;76071.63;4958254;28;101854;-75
2023/10/06 04:53:50;;;;;;;;;3.00;2.00;;;;;-143.90;100.00;76081.97;4962835;28;103241;-75
2023/10/06 04:56:27;;;;;;;;;5.00;4.00;;;;;-143.90;100.00;76094.38;4847208;28;108978;-75
2023/10/06 04:58:57;;;;;;;;;7.75;6.25;;;;;-143.90;100.00;76117.13;4890482;28;101637;-75
2023/10/06 05:01:24;;;;;;;;;14.25;12.75;;;;;-143.90;100.00;76129.53;4936424;28;101633;-73
2023/10/06 05:03:53;;;;;;;;;18.00;15.50;;;;;-143.90;100.00;76129.53;4970061;28;101909;-73
2023/10/06 05:06:22;;;;;;;;;10.00;9.00;;;;;-143.90;100.00;76146.09;4936278;28;104201;-73
2023/10/06 05:08:49;;;;;;;;;4.00;3.75;;;;;-143.90;100.00;76150.22;4974177;28;103268;-74
2023/10/06 05:11:17;;;;;;;;;8.25;6.50;;;;;-143.90;100.00;76158.50;4890185;28;101582;-74
2023/10/06 05:13:49;;;;;;;;;4.50;4.00;;;;;-143.90;100.00;76160.56;4935914;28;101762;-73
2023/10/06 05:16:18;;;;;;;;;9.50;6.50;;;;;-143.90;100.00;76164.69;4950924;28;103407;-73
2023/10/06 05:18:46;;;;;;;;;7.00;3.00;;;;;-143.90;100.00;76162.63;4927989;28;101823;-73
2023/10/06 05:21:15;;;;;;;;;5.50;3.00;;;;;-143.90;100.00;76160.56;4935216;28;105292;-73
2023/10/06 05:23:45;;;;;;;;;5.00;4.25;;;;;-143.90;100.00;76166.75;4956192;28;101717;-73
2023/10/06 05:26:13;;;;;;;;;10.00;8.00;;;;;-143.90;100.00;76166.75;4908941;28;103297;-73
2023/10/06 05:28:47;;;;;;;;;4.50;3.25;;;;;-143.90;100.00;76158.50;4833787;28;102145;-73
2023/10/06 05:31:17;;;;;;;;;3.25;3.25;;;;;-143.90;100.00;76148.16;4883438;28;103965;-73
2023/10/06 05:33:45;;;;;;;;;4.00;3.75;;;;;-143.90;100.00;76139.88;4955487;28;101833;-73
2023/10/06 05:36:12;;;;;;;;;5.00;4.00;;;;;-143.90;100.00;76135.75;4959743;28;102824;-73
2023/10/06 05:38:45;;;;;;;;;3.00;3.00;;;;;-143.90;100.00;76135.75;4952498;28;101683;-73
2023/10/06 05:41:12;;;;;;;;;3.00;3.00;;;;;-143.90;100.00;76127.47;4919261;28;101764;-73
2023/10/06 05:43:40;;;;;;;;;3.50;2.75;;;;;-143.90;100.00;76119.19;4955336;28;102371;-73
2023/10/06 05:46:09;;;;;;;;;5.00;4.00;;;;;-143.90;100.00;76108.84;4948902;28;102167;-73
2023/10/06 05:48:36;;;;;;;;;8.25;8.00;;;;;-143.90;100.00;76094.38;4961909;27;102967;-73
2023/10/06 05:51:09;;;;;;;;;6.75;6.75;;;;;-143.90;100.00;76086.13;4900812;28;101710;-73
2023/10/06 05:53:43;;;;;;;;;5.00;5.00;;;;;-143.90;100.00;76073.72;4870055;28;101878;-75
2023/10/06 05:56:15;;;;;;;;;8.75;8.75;;;;;-143.90;100.00;76061.31;4751246;28;102689;-74
2023/10/06 05:58:54;;;;;;;;;5.50;4.50;;;;;-143.90;100.00;76053.03;4781887;28;101855;-73
2023/10/06 06:01:34;;;;;;;;;2.75;2.00;;;;;-143.90;100.00;76048.88;4744451;28;101706;-73
2023/10/06 06:04:11;;;;;;;;;10.00;7.50;;;;;-143.90;100.00;76032.34;4694099;28;103585;-73
2023/10/06 06:07:03;;;;;;;;;3.75;3.75;;;;;-143.90;100.00;76019.94;4753553;27;103296;-75
2023/10/06 06:09:33;;;;;;;;;4.75;3.25;;;;;-143.90;100.00;76011.66;4795460;28;102046;-73
2023/10/06 06:12:11;;;;;;;;;2.25;2.00;;;;;-143.90;100.00;76017.88;4835245;28;101826;-75
2023/10/06 06:14:40;;;;;;;;;5.25;5.00;;;;;-143.90;100.00;76009.59;4912479;28;102678;-73
2023/10/06 06:17:07;;;;;;;;;5.00;5.00;;;;;-143.90;100.00;75999.25;4951005;27;104992;-74
2023/10/06 06:19:36;;;;;;;;;2.00;2.00;;;;;-143.90;100.00;76015.81;4900639;27;101641;-73
2023/10/06 06:22:05;;;;;;;;;2.50;2.50;;;;;-143.90;100.00;76007.53;4868118;28;101642;-74
2023/10/06 06:24:47;;;;;;;;;4.25;4.25;;;;;-143.90;100.00;76011.66;4836042;28;101725;-73
2023/10/06 06:27:29;;;;;;;;;4.50;4.00;;;;;-143.90;100.00;75988.94;4780819;28;102717;-74
2023/10/06 06:30:00;;;;;;;;;8.25;5.75;;;;;-143.90;100.00;75995.13;4850412;28;101841;-70
2023/10/06 06:32:30;;;;;;;;;5.25;4.00;;;;;-143.90;100.00;75986.84;4891702;28;101860;-73
2023/10/06 06:34:57;;;;;;;;;6.25;5.25;;;;;-143.90;100.00;75976.53;4856704;28;101945;-75
2023/10/06 06:37:37;;;;;;;;;7.75;4.75;;;;;-143.90;100.00;75970.31;4968344;28;107347;-74
2023/10/06 06:40:06;;;;;;;;;7.25;5.50;;;;;-143.90;100.00;75978.59;4936639;28;101653;-73
2023/10/06 06:42:33;;;;;;;;;8.00;6.50;;;;;-143.90;100.00;75966.19;4965104;28;101491;-74
2023/10/06 06:45:01;;;;;;;;;18.25;15.75;;;;;-143.90;100.00;75962.03;4974766;28;101656;-75
2023/10/06 06:47:27;;;;;;;;;14.75;8.75;;;;;-143.90;100.00;75964.13;4933741;28;107797;-74
2023/10/06 06:49:55;;;;;;;;;10.75;7.00;;;;;-143.90;100.00;75955.84;4966600;28;101612;-74
2023/10/06 06:52:22;;;;;;;;;8.00;8.00;;;;;-143.90;100.00;75959.97;4966712;28;101489;-74
2023/10/06 06:54:48;;;;;;;;;10.00;8.00;;;;;-143.90;100.00;75949.63;4951272;28;101478;-74
2023/10/06 06:57:19;;;;;;;;;8.50;5.75;;;;;-143.90;100.00;75933.09;4977653;28;104727;-74
2023/10/06 06:59:46;;;;;;;;;14.25;11.00;;;;;-143.90;100.00;75953.78;4884772;28;102566;-74
2023/10/06 07:02:26;;;;;;;;;11.75;9.25;;;;;-143.90;100.00;75951.69;4880340;28;102011;-74
2023/10/06 07:04:58;;;;;;;;;9.75;8.75;;;;;-143.90;100.00;75939.28;4894632;28;101736;-74
2023/10/06 07:07:26;;;;;;;;;5.50;5.50;;;;;-143.90;100.00;75941.38;4886276;28;108758;-74
2023/10/06 07:09:53;;;;;;;;;7.00;5.25;;;;;-143.90;100.00;75945.50;4901529;28;102444;-74
2023/10/06 07:12:23;;;;;;;;;4.75;4.75;;;;;-143.90;100.00;75935.16;4968572;28;102004;-74
2023/10/06 07:15:30;;;;;;;;;;;;;;;;;;;;;
2023/10/06 07:18:03;;;;;;;;;3.00;3.00;;;;;-143.90;100.00;75933.09;4771677;28;107939;-75
2023/10/06 07:20:51;;;;;;;;;12.00;10.75;;;;;-143.90;100.00;75937.22;4966205;28;101893;-73
2023/10/06 07:23:18;;;;;;;;;6.00;6.00;;;;;-143.90;100.00;75918.63;4981144;28;101839;-74
2023/10/06 07:25:44;;;;;;;;;4.00;4.00;;;;;-143.90;100.00;75900.00;4970482;28;101457;-73
2023/10/06 07:28:13;;;;;;;;;4.00;3.50;;;;;-143.90;100.00;75871.06;4968636;28;103457;-73
2023/10/06 07:30:40;;;;;;;;;5.00;5.00;;;;;-143.90;100.00;75850.38;4944705;28;102137;-74
2023/10/06 07:33:07;;;;;;;;;4.50;4.00;;;;;-143.90;100.00;75835.91;4964486;28;103169;-74
2023/10/06 07:35:41;;;;;;;;;6.00;5.00;;;;;-143.90;100.00;75811.09;4974060;28;102877;-73
2023/10/06 07:38:10;;;;;;;;;4.50;4.00;;;;;-143.90;98.52;75821.44;4916546;28;102993;-73
2023/10/06 07:40:38;;;;;;;;;7.00;6.75;;;;;-143.90;97.60;75817.31;4970664;28;101710;-74
2023/10/06 07:43:07;;;;;;;;;6.00;5.00;;;;;-143.90;97.95;75821.44;4975092;28;101804;-73
2023/10/06 07:45:34;;;;;;;;;4.75;4.75;;;;;-143.90;97.76;75811.09;4979780;28;101830;-73
2023/10/06 07:48:01;;;;;;;;;5.00;4.25;;;;;-143.90;98.72;75817.31;4939200;28;103781;-73
2023/10/06 07:50:29;;;;;;;;;6.00;4.50;;;;;-143.90;99.70;75821.44;4950407;28;101842;-74
2023/10/06 07:52:58;;;;;;;;;6.00;4.50;;;;;-143.90;99.25;75817.31;4979461;28;102416;-73
2023/10/06 07:55:24;;;;;;;;;4.25;4.25;;;;;-143.90;98.87;75825.56;4962335;27;102741;-73
2023/10/06 07:57:52;;;;;;;;;3.25;3.25;;;;;-143.90;99.44;75813.16;4944046;28;102973;-73
2023/10/06 08:00:27;;;;;;;;;5.75;5.25;;;;;-143.90;98.58;75804.91;4981161;28;102423;-74
2023/10/06 08:02:59;;;;;;;;;2.00;1.75;;;;;-143.90;99.63;75778.00;4984798;28;101593;-74
2023/10/06 08:05:27;;;;;;;;;3.75;2.50;;;;;-143.90;99.67;75761.47;4971118;28;102056;-74
2023/10/06 08:07:58;;;;;;;;;2.00;2.00;;;;;-143.90;98.44;75749.06;4960359;28;107829;-74
2023/10/06 08:10:26;;;;;;;;;3.25;3.00;;;;;-143.90;99.49;75732.53;4854374;28;101644;-74
2023/10/06 08:13:10;;;;;;;;;4.50;4.50;;;;;-143.90;98.36;75701.50;4812427;28;102264;-74
2023/10/06 08:15:44;;;;;;;;;6.50;5.00;;;;;-143.90;96.24;75693.25;4748889;28;102185;-74
2023/10/06 08:18:22;;;;;;;;;4.25;3.50;;;;;-143.90;96.90;75664.28;4910613;28;102896;-74
2023/10/06 08:20:49;;;;;;;;;5.25;4.00;;;;;-143.90;94.13;75647.75;4988781;28;101730;-73
2023/10/06 08:23:16;;;;;;;;;4.00;4.00;;;;;-143.90;94.35;75622.94;4969326;28;101913;-73
2023/10/06 08:25:46;;;;;;;;;6.75;6.00;;;;;-143.90;91.70;75598.13;4957526;28;101676;-74
2023/10/06 08:28:31;;;;;;;;;3.75;3.75;;;;;-143.90;92.92;75567.13;4887217;28;107515;-74
2023/10/06 08:31:02;;;;;;;;;4.25;4.25;;;;;-143.90;89.30;75544.38;4890009;28;101617;-74
2023/10/06 08:33:30;;;;;;;;;3.25;3.25;;;;;-143.90;90.17;75538.16;4979428;28;102539;-75
2023/10/06 08:35:58;;;;;;;;;4.25;4.25;;;;;-143.90;90.57;75540.22;4963729;28;101952;-73
2023/10/06 08:38:24;;;;;;;;;4.75;4.75;;;;;-143.90;89.10;75529.91;4959079;28;104509;-73
2023/10/06 08:40:56;;;;;;;;;3.50;3.00;;;;;-143.90;90.22;75521.63;4942679;27;101580;-73
2023/10/06 08:43:28;;;;;;;;;4.25;4.00;;;;;-143.90;89.33;75523.69;4962401;28;101907;-73
2023/10/06 08:45:59;;;;;;;;;6.00;5.00;;;;;-143.90;87.54;75540.22;4962097;28;101868;-73
2023/10/06 08:48:31;;;;;;;;;4.00;4.00;;;;;-143.90;87.27;75540.22;4975701;28;109664;-73
2023/10/06 08:50:59;;;;;;;;;4.50;3.75;;;;;-143.90;88.42;75531.97;4963935;28;102836;-73
2023/10/06 08:53:30;;;;;;;;;4.25;4.25;;;;;-143.90;88.87;75531.97;4970734;28;101550;-73
2023/10/06 08:55:57;;;;;;;;;6.25;4.75;;;;;-143.90;87.75;75536.09;4962201;28;101722;-73
2023/10/06 08:58:26;;;;;;;;;4.00;4.00;;;;;-143.90;89.09;75529.91;4969258;28;103489;-73
2023/10/06 09:00:55;;;;;;;;;5.00;5.00;;;;;-143.90;89.17;75525.75;4951343;28;102015;-73
2023/10/06 09:03:22;;;;;;;;;4.75;4.00;;;;;-143.90;88.44;75519.56;4974252;28;102132;-73
2023/10/06 09:05:54;;;;;;;;;4.25;4.25;;;;;-143.90;89.27;75527.81;4982130;28;101842;-73
2023/10/06 09:08:21;;;;;;;;;5.00;5.00;;;;;-143.90;88.19;75515.41;4983243;28;103403;-73
2023/10/06 09:10:49;;;;;;;;;3.00;3.00;;;;;-143.90;88.15;75494.75;4979724;28;101665;-74
2023/10/06 09:13:21;;;;;;;;;6.25;5.75;;;;;-143.90;86.03;75527.81;4918135;28;101793;-73
2023/10/06 09:15:55;;;;;;;;;5.00;5.00;;;;;-143.90;86.47;75507.16;4966273;28;101690;-75
2023/10/06 09:18:27;;;;;;;;;4.00;3.00;;;;;-143.90;85.47;75490.63;4969810;28;103655;-73
2023/10/06 09:20:56;;;;;;;;;3.00;3.00;;;;;-143.90;83.84;75492.69;4971088;28;101802;-73
2023/10/06 09:23:31;;;;;;;;;4.75;4.00;;;;;-143.90;81.93;75503.03;4957093;28;101538;-72
2023/10/06 09:26:00;;;;;;;;;4.00;3.75;;;;;-143.90;81.68;75519.56;4970970;28;102697;-72
2023/10/06 09:28:31;;;;;;;;;3.50;2.00;;;;;-143.90;82.21;75515.41;4968605;28;103655;-73
2023/10/06 09:31:05;;;;;;;;;2.25;1.75;;;;;-143.90;82.48;75515.41;4982345;28;101495;-74
2023/10/06 09:33:35;;;;;;;;;1.50;1.50;;;;;-143.90;81.93;75505.09;4981473;28;101700;-73
2023/10/06 09:36:11;;;;;;;;;2.00;2.00;;;;;-143.90;81.06;75503.03;4978431;28;101638;-75
2023/10/06 09:38:39;;;;;;;;;2.00;2.00;;;;;-143.90;82.67;75482.34;4982060;28;106728;-73
2023/10/06 09:41:07;;;;;;;;;4.25;3.00;;;;;-143.90;81.47;75467.88;4977335;28;101771;-73
2023/10/06 09:43:39;;;;;;;;;3.25;2.25;;;;;-143.90;82.85;75443.06;4983329;28;101489;-73
2023/10/06 09:46:06;;;;;;;;;3.00;3.00;;;;;-143.90;80.69;75420.31;4975636;28;101900;-74
2023/10/06 09:48:39;;;;;;;;;3.00;3.00;;;;;-143.90;77.99;75414.13;4983817;28;102443;-73
2023/10/06 09:51:07;;;;;;;;;3.00;2.00;;;;;-143.90;79.26;75412.03;4971467;28;102076;-73
2023/10/06 09:53:38;;;;;;;;;2.00;2.00;;;;;-143.90;77.40;75403.78;4962428;28;102750;-73
2023/10/06 09:56:13;;;;;;;;;2.00;2.00;;;;;-143.90;77.48;75391.38;4973434;28;102694;-74
2023/10/06 09:58:42;;;;;;;;;2.00;2.00;;;;;-143.90;76.39;75395.50;4981193;28;107812;-74
2023/10/06 10:01:12;;;;;;;;;1.25;1.25;;;;;-143.90;76.82;75397.56;4985199;28;101751;-74
2023/10/06 10:03:41;;;;;;;;;1.00;1.00;;;;;-143.90;77.08;75391.38;4968131;28;102044;-73
2023/10/06 10:06:09;;;;;;;;;1.00;1.00;;;;;-143.90;76.94;75370.69;4984590;28;101651;-74
2023/10/06 10:08:41;;;;;;;;;3.00;2.67;;;;;-143.90;76.68;75366.56;4983082;28;107944;-73
2023/10/06 10:11:30;;;;;;;;;1.00;1.00;;;;;-143.90;75.12;75364.50;4984826;28;101792;-73
2023/10/06 10:14:09;;;;;;;;;1.33;1.33;;;;;-143.90;76.87;75370.69;4982403;28;102082;-74
2023/10/06 10:16:40;;;;;;;;;2.25;2.25;;;;;-143.90;77.46;75403.78;4986712;28;101807;-74
2023/10/06 10:19:11;;;;;;;;;3.25;2.50;;;;;-143.90;77.53;75399.63;4968169;28;107786;-74
2023/10/06 10:21:41;;;;;;;;;1.67;1.67;;;;;-143.90;76.90;75403.78;4975251;28;101791;-74
2023/10/06 10:24:12;;;;;;;;;2.67;2.00;;;;;-143.90;76.62;75409.97;4962441;28;102017;-75
2023/10/06 10:26:59;;;;;;;;;4.00;4.00;;;;;-143.90;75.70;75418.25;4943607;28;101807;-75
2023/10/06 10:29:28;;;;;;;;;4.00;3.00;;;;;-143.90;74.26;75426.50;4975732;28;104174;-74
2023/10/06 10:32:24;;;;;;;;;2.00;1.00;;;;;-143.90;74.97;75407.91;4982031;28;101960;-74
2023/10/06 10:35:18;;;;;;;;;2.00;2.00;;;;;-143.90;75.93;75395.50;4978357;28;101605;-73
2023/10/06 10:37:55;;;;;;;;;1.33;1.33;;;;;-143.90;77.28;75387.22;4971045;28;102584;-76
2023/10/06 10:40:27;;;;;;;;;3.50;3.50;;;;;-143.90;76.58;75383.09;4981444;28;103895;-74
2023/10/06 10:43:00;;;;;;;;;3.25;3.25;;;;;-143.90;75.75;75343.81;4994416;28;101944;-73
2023/10/06 10:45:34;;;;;;;;;2.00;2.00;;;;;-143.90;75.61;75316.94;4984524;28;102098;-73
2023/10/06 10:48:14;;;;;;;;;1.50;1.50;;;;;-143.90;72.46;75300.41;4953123;28;101663;-73
2023/10/06 10:50:57;;;;;;;;;1.25;1.25;;;;;-143.90;68.69;75308.66;4979008;28;108158;-75
2023/10/06 10:53:29;;;;;;;;;0.33;0.33;;;;;-143.90;68.94;75312.81;4977926;28;102049;-73
2023/10/06 10:55:56;;;;;;;;;1.00;1.00;;;;;-143.90;70.78;75308.66;4983729;28;103601;-73
2023/10/06 10:58:53;;;;;;;;;1.00;1.00;;;;;-143.90;68.90;75316.94;4988899;28;101650;-74
2023/10/06 11:01:30;;;;;;;;;1.00;1.00;;;;;-143.90;68.04;75308.66;4972109;28;107928;-75
2023/10/06 11:06:45;;;;;;;;;1.67;1.00;;;;;-143.90;67.49;75283.84;4982310;28;101820;-74
2023/10/06 11:09:29;;;;;;;;;1.00;1.00;;;;;-143.90;69.70;75271.47;4981190;28;101611;-74
2023/10/06 11:12:08;;;;;;;;;1.00;0.33;;;;;-143.90;65.18;75259.06;4983554;28;107847;-74
2023/10/06 11:14:52;;;;;;;;;1.00;1.00;;;;;-143.90;64.48;75230.09;4974648;28;101976;-74
2023/10/06 11:17:31;;;;;;;;;0.00;0.00;;;;;-143.90;66.48;75194.97;4980375;28;102079;-74
2023/10/06 11:20:33;;;;;;;;;2.00;2.00;;;;;-143.90;65.56;75190.81;4980537;28;101556;-74
2023/10/06 11:23:01;;;;;;;;;2.00;2.00;;;;;-143.90;65.15;75159.81;4981487;28;108172;-74
2023/10/06 11:25:29;;;;;;;;;3.00;2.00;;;;;-143.90;65.13;75139.16;4979738;28;101753;-74
2023/10/06 11:27:58;;;;;;;;;1.67;1.67;;;;;-143.90;64.25;75120.53;4978560;28;107490;-74
2023/10/06 11:30:28;;;;;;;;;2.33;2.33;;;;;-143.90;63.75;75110.19;4980259;28;101802;-74
2023/10/06 11:33:00;;;;;;;;;2.00;2.00;;;;;-143.90;62.13;75089.53;4993252;28;102898;-74
2023/10/06 11:35:27;;;;;;;;;2.33;2.33;;;;;-143.90;61.90;75081.25;4984967;28;101552;-74
2023/10/06 11:37:55;;;;;;;;;2.00;2.00;;;;;-143.90;60.54;75075.06;4983516;28;101517;-74
2023/10/06 11:40:24;;;;;;;;;2.00;1.33;;;;;-143.90;62.71;75062.66;4966314;28;101910;-74